Westrac — WTH4325 — position and weather

sailwx.info

Track history (hours):
 
Tides and Currents Weather Stations Pressure Air Temp Water Temp Dewpoint Dewpoint Depression Visibility Wind Speed Wind Dir Waves Ship Positions

Westrac

Owner: WESTERN TOWBOAT CO, SEATTLE, WA. More information available from US FCC via Universal Licensing System and Coast Guard Vessel Documentation Center.

Last reported at 2017-Sep-21 15:31 UTC. Time now 2017-Sep-23 18:34 UTC.
Position N 47°34' W 122°21'.

Length 23 m; draft 5 m.

Type: Tug. MMSI: 366993010.

Date/timePositionNaut miles runAvg speedWind from/ knotsBaromVisibWave heightAir tempDewpointWater temp
2017-Sep-21 15:31N 47°34' W 122°21'0 0.2
2017-Sep-21 15:29N 47°34' W 122°21'1 1.9
2017-Sep-21 15:00N 47°35' W 122°22'0 0.8
2017-Sep-21 14:30N 47°35' W 122°22'2 4.8
2017-Sep-21 13:59N 47°33' W 122°20'0 0.8
2017-Sep-21 13:24N 47°33' W 122°21'2 4.5
2017-Sep-21 13:01N 47°35' W 122°22'1 0.1
2017-Sep-21 02:02N 47°34' W 122°21'0 2.1
2017-Sep-21 02:00N 47°34' W 122°21'2 3.2
2017-Sep-21 01:30N 47°36' W 122°22'2 3.4
2017-Sep-21 01:00N 47°34' W 122°21'1 1.5
2017-Sep-21 00:30N 47°33' W 122°21'0 0.1
2017-Sep-21 00:00N 47°33' W 122°21'2 4.5
2017-Sep-20 23:30N 47°35' W 122°22'3 5.2
2017-Sep-20 23:00N 47°33' W 122°20'0 0.8
2017-Sep-20 22:30N 47°33' W 122°21'0 0.8
2017-Sep-20 22:00N 47°33' W 122°20'1 2.6
2017-Sep-20 21:30N 47°34' W 122°21'0 0.0
2017-Sep-20 21:00N 47°34' W 122°21'0 0.0
2017-Sep-20 20:30N 47°34' W 122°21'0 0.0
2017-Sep-20 20:00N 47°34' W 122°21'0 0.0
2017-Sep-20 19:30N 47°34' W 122°21'0 0.0
2017-Sep-20 19:00N 47°34' W 122°21'0 0.0
2017-Sep-20 18:30N 47°34' W 122°21'0 0.0
2017-Sep-20 18:00N 47°34' W 122°21'0 0.0
2017-Sep-20 17:30N 47°34' W 122°21'0 0.0
2017-Sep-20 17:00N 47°34' W 122°21'0 0.0
2017-Sep-20 16:30N 47°34' W 122°21'1 2.3
2017-Sep-20 16:00N 47°35' W 122°21'0 0.5
2017-Sep-20 15:30N 47°35' W 122°21'1 2.7
2017-Sep-20 15:00N 47°34' W 122°21'0 0.0
2017-Sep-19 17:46N 47°34' W 122°21'1 5.1
2017-Sep-19 17:31N 47°35' W 122°22'1 2.7
2017-Sep-19 17:00N 47°34' W 122°21'0 0.2
2017-Sep-19 16:30N 47°34' W 122°21'1 2.5
2017-Sep-19 16:01N 47°35' W 122°22'0 0.7
2017-Sep-19 15:31N 47°35' W 122°21'1 2.6
2017-Sep-19 15:01N 47°34' W 122°21'0 0.0
2017-Sep-19 14:31N 47°34' W 122°21'0 0.0
2017-Sep-19 14:00N 47°34' W 122°21'0 0.0
2017-Sep-19 13:30N 47°34' W 122°21'0 0.0
2017-Sep-19 13:00N 47°34' W 122°21'0 0.0
2017-Sep-19 12:30N 47°34' W 122°21'0 0.0
2017-Sep-17 19:42N 47°34' W 122°21'1 3.8
2017-Sep-17 19:30N 47°33' W 122°21'1 1.5
2017-Sep-17 19:00N 47°34' W 122°21'1 3.0
2017-Sep-17 18:30N 47°35' W 122°22'1 2.8
2017-Sep-17 18:00N 47°34' W 122°21'0 0.0
2017-Sep-16 22:52N 47°34' W 122°21'1 3.9
2017-Sep-16 22:30N 47°33' W 122°20'2 4.3
2017-Sep-16 22:00N 47°35' W 122°22'1 1.2
2017-Sep-16 21:30N 47°35' W 122°22'2 4.2
2017-Sep-16 21:00N 47°33' W 122°21'0 0.0
2017-Sep-16 20:30N 47°33' W 122°21'0 0.0
2017-Sep-16 20:00N 47°33' W 122°21'0 0.0
2017-Sep-16 19:30N 47°33' W 122°21'0 0.4
2017-Sep-16 19:00N 47°33' W 122°21'1 1.0
2017-Sep-16 18:30N 47°33' W 122°20'2 5.0
2017-Sep-16 18:00N 47°35' W 122°22'1 1.9
2017-Sep-16 17:30N 47°34' W 122°21'2 3.8
2017-Sep-16 17:00N 47°32' W 122°20'0 0.8
2017-Sep-16 16:30N 47°33' W 122°20'4 7.5
2017-Sep-16 16:00N 47°36' W 122°22'2 3.4
2017-Sep-16 15:30N 47°38' W 122°23'0 0.3
2017-Sep-16 15:00N 47°38' W 122°23'0 0.6
2017-Sep-16 14:30N 47°38' W 122°23'0 0.1
2017-Sep-16 14:00N 47°37' W 122°23'0 0.4
2017-Sep-16 13:30N 47°38' W 122°23'4 7.5
2017-Sep-16 13:00N 47°34' W 122°21'0 0.0
2017-Sep-16 02:12N 47°34' W 122°21'1 7.2
2017-Sep-16 02:00N 47°35' W 122°22'3 5.5
2017-Sep-16 01:30N 47°38' W 122°23'1 1.1
2017-Sep-16 01:00N 47°37' W 122°23'1 2.9
2017-Sep-16 00:30N 47°36' W 122°22'3 6.6
2017-Sep-16 00:00N 47°33' W 122°21'0 0.7
2017-Sep-15 23:30N 47°33' W 122°20'1 1.1
2017-Sep-15 23:00N 47°33' W 122°21'0 0.0
2017-Sep-15 22:30N 47°33' W 122°21'0 0.0
2017-Sep-15 22:00N 47°33' W 122°21'1 1.3
2017-Sep-15 21:30N 47°34' W 122°21'2 3.4
2017-Sep-15 21:00N 47°36' W 122°22'2 4.7
2017-Sep-15 20:30N 47°33' W 122°21'1 1.9
2017-Sep-15 20:00N 47°32' W 122°20'0 0.3
2017-Sep-15 19:30N 47°33' W 122°20'1 2.4
2017-Sep-15 19:00N 47°34' W 122°21'2 3.7
2017-Sep-15 18:30N 47°35' W 122°22'1 2.8
2017-Sep-15 18:00N 47°34' W 122°21'2 3.0
2017-Sep-15 17:30N 47°35' W 122°22'2 3.3
2017-Sep-15 17:01N 47°34' W 122°21'0 0.0
2017-Sep-15 16:30N 47°34' W 122°21'0 0.0
2017-Sep-15 16:00N 47°34' W 122°21'0 0.0
2017-Sep-15 15:30N 47°34' W 122°21'0 0.0
2017-Sep-15 15:01N 47°34' W 122°21'0 0.0
2017-Sep-15 14:30N 47°34' W 122°21'0 0.0
2017-Sep-15 14:00N 47°34' W 122°21'0 0.0
2017-Sep-15 13:30N 47°34' W 122°21'0 0.0
2017-Sep-15 13:01N 47°34' W 122°21'0 0.0
2017-Sep-15 12:30N 47°34' W 122°21'0 0.0
2017-Sep-15 12:01N 47°34' W 122°21'0 0.0
2017-Sep-15 11:30N 47°34' W 122°21'0 0.0
2017-Sep-15 11:00N 47°34' W 122°21'0 0.0
2017-Sep-15 10:31N 47°34' W 122°21'0 0.0
2017-Sep-15 10:00N 47°34' W 122°21'0 0.0
2017-Sep-15 09:30N 47°34' W 122°21'0 0.0
2017-Sep-15 09:00N 47°34' W 122°21'0 0.0
2017-Sep-15 08:31N 47°34' W 122°21'0 0.0
2017-Sep-15 08:00N 47°34' W 122°21'0 0.0
2017-Sep-15 07:30N 47°34' W 122°21'0 0.0
2017-Sep-15 07:00N 47°34' W 122°21'0 0.0
2017-Sep-15 06:30N 47°34' W 122°21'0 0.0
2017-Sep-15 06:00N 47°34' W 122°21'0 0.0
2017-Sep-15 05:31N 47°34' W 122°21'0 0.0
2017-Sep-15 05:00N 47°34' W 122°21'0 0.0
2017-Sep-15 04:30N 47°34' W 122°21'0 0.0
2017-Sep-15 04:00N 47°34' W 122°21'0 0.0
2017-Sep-15 03:30N 47°34' W 122°21'0 0.0
2017-Sep-15 03:00N 47°34' W 122°21'0 0.0
2017-Sep-15 02:30N 47°34' W 122°21'0 0.0
2017-Sep-15 02:00N 47°34' W 122°21'1 3.0
2017-Sep-15 01:31N 47°35' W 122°22'2 4.5
2017-Sep-15 01:00N 47°33' W 122°21'0 0.3
2017-Sep-15 00:30N 47°33' W 122°20'1 2.6
2017-Sep-15 00:00N 47°34' W 122°21'1 2.4
2017-Sep-14 23:30N 47°35' W 122°22'2 3.1
2017-Sep-14 23:00N 47°34' W 122°21'0 0.0
2017-Sep-14 22:30N 47°34' W 122°21'0 0.0
2017-Sep-14 22:00N 47°34' W 122°21'0 0.0
2017-Sep-14 21:30N 47°34' W 122°21'0 0.0
2017-Sep-14 21:00N 47°34' W 122°21'0 0.0
2017-Sep-14 20:30N 47°34' W 122°21'0 0.0
2017-Sep-14 03:56N 47°34' W 122°21'1 3.3
2017-Sep-14 03:30N 47°35' W 122°22'2 4.7
2017-Sep-14 03:00N 47°33' W 122°21'1 2.3
2017-Sep-14 02:30N 47°32' W 122°20'0 0.0
2017-Sep-14 02:00N 47°32' W 122°20'1 1.2
2017-Sep-14 01:30N 47°33' W 122°20'0 0.6
2017-Sep-14 01:00N 47°33' W 122°20'3 5.2
2017-Sep-14 00:30N 47°35' W 122°22'2 4.6
2017-Sep-14 00:00N 47°33' W 122°21'2 3.6
2017-Sep-13 23:30N 47°35' W 122°22'1 1.5
2017-Sep-13 23:00N 47°34' W 122°21'1 1.8
2017-Sep-13 22:30N 47°33' W 122°21'0 0.1
2017-Sep-13 21:59N 47°33' W 122°21'0 1.0
2017-Sep-13 21:30N 47°33' W 122°20'2 3.8
2017-Sep-13 21:00N 47°35' W 122°22'1 1.5
2017-Sep-13 20:30N 47°35' W 122°21'0 0.7
2017-Sep-13 20:00N 47°35' W 122°22'1 2.6
2017-Sep-13 19:30N 47°34' W 122°21'1 1.5
2017-Sep-13 19:00N 47°33' W 122°21'0 0.1
2017-Sep-13 18:30N 47°33' W 122°21'2 4.7
2017-Sep-13 18:00N 47°36' W 122°22'1 2.4
2017-Sep-13 17:30N 47°34' W 122°21'2 3.4
2017-Sep-13 17:00N 47°33' W 122°20'0 0.2
2017-Sep-13 16:30N 47°33' W 122°20'0 0.4
2017-Sep-13 16:00N 47°33' W 122°20'0 0.1
2017-Sep-13 15:30N 47°33' W 122°20'1 1.0
2017-Sep-13 15:00N 47°33' W 122°21'2 4.1
2017-Sep-13 14:30N 47°35' W 122°22'1 0.2
2017-Sep-13 09:23N 47°34' W 122°21'1 2.1
2017-Sep-13 09:00N 47°33' W 122°21'1 2.4
2017-Sep-13 08:30N 47°34' W 122°21'0 0.7
2017-Sep-13 08:00N 47°35' W 122°22'1 1.7
2017-Sep-13 07:30N 47°34' W 122°21'0 0.0
2017-Sep-13 07:00N 47°34' W 122°21'0 0.0
2017-Sep-13 06:30N 47°34' W 122°21'0 0.0
2017-Sep-13 06:00N 47°34' W 122°21'0 0.0
2017-Sep-13 05:30N 47°34' W 122°21'0 0.0
2017-Sep-13 05:00N 47°34' W 122°21'1 1.3
2017-Sep-13 04:30N 47°35' W 122°22'0 0.3
2017-Sep-13 04:00N 47°34' W 122°21'1 1.9
2017-Sep-13 03:30N 47°35' W 122°21'1 1.7
2017-Sep-13 03:00N 47°34' W 122°21'0 0.1
2017-Sep-13 02:30N 47°34' W 122°21'0 0.0
2017-Sep-13 02:00N 47°34' W 122°21'1 2.3
2017-Sep-13 01:30N 47°35' W 122°21'2 4.6
2017-Sep-13 01:00N 47°33' W 122°21'1 1.9
2017-Sep-13 00:30N 47°34' W 122°21'0 0.0
2017-Sep-13 00:00N 47°34' W 122°21'0 0.0
2017-Sep-12 23:30N 47°34' W 122°21'0 0.0
2017-Sep-12 23:00N 47°34' W 122°21'0 0.0
2017-Sep-12 22:30N 47°34' W 122°21'0 0.0
2017-Sep-12 22:00N 47°34' W 122°21'0 0.5
2017-Sep-12 21:31N 47°34' W 122°21'0 0.5
2017-Sep-12 21:00N 47°34' W 122°21'0 0.0
2017-Sep-12 20:30N 47°34' W 122°21'1 1.7
2017-Sep-12 20:00N 47°33' W 122°21'1 1.7
2017-Sep-12 19:30N 47°34' W 122°21'0 0.0
2017-Sep-12 19:00N 47°34' W 122°21'0 0.0
2017-Sep-12 18:30N 47°34' W 122°21'0 0.0
2017-Sep-12 18:00N 47°34' W 122°21'0 0.6
2017-Sep-12 17:30N 47°34' W 122°21'1 2.0
2017-Sep-12 17:00N 47°35' W 122°21'0 0.6
2017-Sep-12 16:30N 47°36' W 122°21'0 0.7
2017-Sep-12 16:00N 47°35' W 122°21'1 2.6
2017-Sep-12 15:30N 47°34' W 122°21'0 0.0
2017-Sep-12 15:00N 47°34' W 122°21'0 0.0
2017-Sep-12 14:30N 47°34' W 122°21'0 0.0
2017-Sep-12 14:00N 47°34' W 122°21'0 0.0
2017-Sep-12 13:30N 47°34' W 122°21'0 0.0
2017-Sep-12 13:00N 47°34' W 122°21'0 0.0
2017-Sep-12 12:30N 47°34' W 122°21'0 0.0
2017-Sep-12 12:00N 47°34' W 122°21'0 0.0
2017-Sep-12 11:30N 47°34' W 122°21'0 0.0
2017-Sep-12 11:00N 47°34' W 122°21'0 0.0
2017-Sep-12 10:30N 47°34' W 122°21'0 0.0
2017-Sep-12 10:00N 47°34' W 122°21'0 0.0
2017-Sep-12 09:30N 47°34' W 122°21'0 0.0
2017-Sep-12 09:00N 47°34' W 122°21'0 0.0
2017-Sep-12 08:30N 47°34' W 122°21'0 0.0
2017-Sep-12 08:00N 47°34' W 122°21'0 0.0
2017-Sep-12 07:30N 47°34' W 122°21'1 2.3
2017-Sep-12 07:00N 47°35' W 122°21'0 0.2
2017-Sep-12 06:30N 47°35' W 122°21'1 2.6
2017-Sep-12 06:00N 47°34' W 122°21'0 0.2
2017-Sep-12 05:30N 47°34' W 122°21'0 0.0
2017-Sep-12 05:00N 47°34' W 122°21'0 0.0
2017-Sep-12 04:30N 47°34' W 122°21'0 0.0
2017-Sep-12 04:00N 47°34' W 122°21'0 0.0
2017-Sep-12 03:30N 47°34' W 122°21'0 0.0
2017-Sep-12 03:00N 47°34' W 122°21'0 0.0
2017-Sep-12 02:30N 47°34' W 122°21'0 0.0
2017-Sep-12 02:00N 47°34' W 122°21'0 0.0
2017-Sep-12 01:30N 47°34' W 122°21'0 0.0
2017-Sep-12 01:00N 47°34' W 122°21'0 0.0
2017-Sep-12 00:30N 47°34' W 122°21'0 0.0
2017-Sep-12 00:00N 47°34' W 122°21'0 0.0
2017-Sep-11 23:30N 47°34' W 122°21'1 1.8
2017-Sep-11 23:00N 47°33' W 122°21'0 0.0
2017-Sep-11 22:30N 47°33' W 122°21'0 0.0
2017-Sep-11 22:00N 47°33' W 122°21'0 0.2
2017-Sep-11 21:30N 47°33' W 122°21'2 4.4
2017-Sep-11 21:00N 47°35' W 122°22'0 0.1
2017-Sep-11 20:30N 47°35' W 122°22'1 1.2
2017-Sep-11 20:00N 47°35' W 122°22'3 5.7
2017-Sep-11 19:30N 47°32' W 122°20'3 5.3
2017-Sep-11 19:00N 47°35' W 122°22'3 7.0
2017-Sep-11 18:30N 47°37' W 122°24'3 6.5
2017-Sep-11 18:01N 47°41' W 122°25'2 4.5
2017-Sep-11 17:30N 47°38' W 122°26'5 9.5
2017-Sep-11 17:00N 47°35' W 122°22'1 3.0
2017-Sep-11 16:30N 47°33' W 122°21'1 2.3
2017-Sep-11 16:01N 47°34' W 122°21'  
Track history (hours):
 
Tides and Currents Weather Stations Pressure Air Temp Water Temp Dewpoint Dewpoint Depression Visibility Wind Speed Wind Dir Waves Ship Positions

Westrac

Owner: WESTERN TOWBOAT CO, SEATTLE, WA. More information available from US FCC via Universal Licensing System and Coast Guard Vessel Documentation Center.

Last reported at 2017-Sep-21 15:31 UTC. Time now 2017-Sep-23 18:34 UTC.
Position N 47°34' W 122°21'.

Length 23 m; draft 5 m.

Type: Tug. MMSI: 366993010.

Date/timePositionNaut miles runAvg speedWind from/ knotsBaromVisibWave heightAir tempDewpointWater temp
2017-Sep-21 15:31N 47°34' W 122°21'0 0.2
2017-Sep-21 15:29N 47°34' W 122°21'1 1.9
2017-Sep-21 15:00N 47°35' W 122°22'0 0.8
2017-Sep-21 14:30N 47°35' W 122°22'2 4.8
2017-Sep-21 13:59N 47°33' W 122°20'0 0.8
2017-Sep-21 13:24N 47°33' W 122°21'2 4.5
2017-Sep-21 13:01N 47°35' W 122°22'1 0.1
2017-Sep-21 02:02N 47°34' W 122°21'0 2.1
2017-Sep-21 02:00N 47°34' W 122°21'2 3.2
2017-Sep-21 01:30N 47°36' W 122°22'2 3.4
2017-Sep-21 01:00N 47°34' W 122°21'1 1.5
2017-Sep-21 00:30N 47°33' W 122°21'0 0.1
2017-Sep-21 00:00N 47°33' W 122°21'2 4.5
2017-Sep-20 23:30N 47°35' W 122°22'3 5.2
2017-Sep-20 23:00N 47°33' W 122°20'0 0.8
2017-Sep-20 22:30N 47°33' W 122°21'0 0.8
2017-Sep-20 22:00N 47°33' W 122°20'1 2.6
2017-Sep-20 21:30N 47°34' W 122°21'0 0.0
2017-Sep-20 21:00N 47°34' W 122°21'0 0.0
2017-Sep-20 20:30N 47°34' W 122°21'0 0.0
2017-Sep-20 20:00N 47°34' W 122°21'0 0.0
2017-Sep-20 19:30N 47°34' W 122°21'0 0.0
2017-Sep-20 19:00N 47°34' W 122°21'0 0.0
2017-Sep-20 18:30N 47°34' W 122°21'0 0.0
2017-Sep-20 18:00N 47°34' W 122°21'0 0.0
2017-Sep-20 17:30N 47°34' W 122°21'0 0.0
2017-Sep-20 17:00N 47°34' W 122°21'0 0.0
2017-Sep-20 16:30N 47°34' W 122°21'1 2.3
2017-Sep-20 16:00N 47°35' W 122°21'0 0.5
2017-Sep-20 15:30N 47°35' W 122°21'1 2.7
2017-Sep-20 15:00N 47°34' W 122°21'0 0.0
2017-Sep-19 17:46N 47°34' W 122°21'1 5.1
2017-Sep-19 17:31N 47°35' W 122°22'1 2.7
2017-Sep-19 17:00N 47°34' W 122°21'0 0.2
2017-Sep-19 16:30N 47°34' W 122°21'1 2.5
2017-Sep-19 16:01N 47°35' W 122°22'0 0.7
2017-Sep-19 15:31N 47°35' W 122°21'1 2.6
2017-Sep-19 15:01N 47°34' W 122°21'0 0.0
2017-Sep-19 14:31N 47°34' W 122°21'0 0.0
2017-Sep-19 14:00N 47°34' W 122°21'0 0.0
2017-Sep-19 13:30N 47°34' W 122°21'0 0.0
2017-Sep-19 13:00N 47°34' W 122°21'0 0.0
2017-Sep-19 12:30N 47°34' W 122°21'0 0.0
2017-Sep-17 19:42N 47°34' W 122°21'1 3.8
2017-Sep-17 19:30N 47°33' W 122°21'1 1.5
2017-Sep-17 19:00N 47°34' W 122°21'1 3.0
2017-Sep-17 18:30N 47°35' W 122°22'1 2.8
2017-Sep-17 18:00N 47°34' W 122°21'0 0.0
2017-Sep-16 22:52N 47°34' W 122°21'1 3.9
2017-Sep-16 22:30N 47°33' W 122°20'2 4.3
2017-Sep-16 22:00N 47°35' W 122°22'1 1.2
2017-Sep-16 21:30N 47°35' W 122°22'2 4.2
2017-Sep-16 21:00N 47°33' W 122°21'0 0.0
2017-Sep-16 20:30N 47°33' W 122°21'0 0.0
2017-Sep-16 20:00N 47°33' W 122°21'0 0.0
2017-Sep-16 19:30N 47°33' W 122°21'0 0.4
2017-Sep-16 19:00N 47°33' W 122°21'1 1.0
2017-Sep-16 18:30N 47°33' W 122°20'2 5.0
2017-Sep-16 18:00N 47°35' W 122°22'1 1.9
2017-Sep-16 17:30N 47°34' W 122°21'2 3.8
2017-Sep-16 17:00N 47°32' W 122°20'0 0.8
2017-Sep-16 16:30N 47°33' W 122°20'4 7.5
2017-Sep-16 16:00N 47°36' W 122°22'2 3.4
2017-Sep-16 15:30N 47°38' W 122°23'0 0.3
2017-Sep-16 15:00N 47°38' W 122°23'0 0.6
2017-Sep-16 14:30N 47°38' W 122°23'0 0.1
2017-Sep-16 14:00N 47°37' W 122°23'0 0.4
2017-Sep-16 13:30N 47°38' W 122°23'4 7.5
2017-Sep-16 13:00N 47°34' W 122°21'0 0.0
2017-Sep-16 02:12N 47°34' W 122°21'1 7.2
2017-Sep-16 02:00N 47°35' W 122°22'3 5.5
2017-Sep-16 01:30N 47°38' W 122°23'1 1.1
2017-Sep-16 01:00N 47°37' W 122°23'1 2.9
2017-Sep-16 00:30N 47°36' W 122°22'3 6.6
2017-Sep-16 00:00N 47°33' W 122°21'0 0.7
2017-Sep-15 23:30N 47°33' W 122°20'1 1.1
2017-Sep-15 23:00N 47°33' W 122°21'0 0.0
2017-Sep-15 22:30N 47°33' W 122°21'0 0.0
2017-Sep-15 22:00N 47°33' W 122°21'1 1.3
2017-Sep-15 21:30N 47°34' W 122°21'2 3.4
2017-Sep-15 21:00N 47°36' W 122°22'2 4.7
2017-Sep-15 20:30N 47°33' W 122°21'1 1.9
2017-Sep-15 20:00N 47°32' W 122°20'0 0.3
2017-Sep-15 19:30N 47°33' W 122°20'1 2.4
2017-Sep-15 19:00N 47°34' W 122°21'2 3.7
2017-Sep-15 18:30N 47°35' W 122°22'1 2.8
2017-Sep-15 18:00N 47°34' W 122°21'2 3.0
2017-Sep-15 17:30N 47°35' W 122°22'2 3.3
2017-Sep-15 17:01N 47°34' W 122°21'0 0.0
2017-Sep-15 16:30N 47°34' W 122°21'0 0.0
2017-Sep-15 16:00N 47°34' W 122°21'0 0.0
2017-Sep-15 15:30N 47°34' W 122°21'0 0.0
2017-Sep-15 15:01N 47°34' W 122°21'0 0.0
2017-Sep-15 14:30N 47°34' W 122°21'0 0.0
2017-Sep-15 14:00N 47°34' W 122°21'0 0.0
2017-Sep-15 13:30N 47°34' W 122°21'0 0.0
2017-Sep-15 13:01N 47°34' W 122°21'0 0.0
2017-Sep-15 12:30N 47°34' W 122°21'0 0.0
2017-Sep-15 12:01N 47°34' W 122°21'0 0.0
2017-Sep-15 11:30N 47°34' W 122°21'0 0.0
2017-Sep-15 11:00N 47°34' W 122°21'0 0.0
2017-Sep-15 10:31N 47°34' W 122°21'0 0.0
2017-Sep-15 10:00N 47°34' W 122°21'0 0.0
2017-Sep-15 09:30N 47°34' W 122°21'0 0.0
2017-Sep-15 09:00N 47°34' W 122°21'0 0.0
2017-Sep-15 08:31N 47°34' W 122°21'0 0.0
2017-Sep-15 08:00N 47°34' W 122°21'0 0.0
2017-Sep-15 07:30N 47°34' W 122°21'0 0.0
2017-Sep-15 07:00N 47°34' W 122°21'0 0.0
2017-Sep-15 06:30N 47°34' W 122°21'0 0.0
2017-Sep-15 06:00N 47°34' W 122°21'0 0.0
2017-Sep-15 05:31N 47°34' W 122°21'0 0.0
2017-Sep-15 05:00N 47°34' W 122°21'0 0.0
2017-Sep-15 04:30N 47°34' W 122°21'0 0.0
2017-Sep-15 04:00N 47°34' W 122°21'0 0.0
2017-Sep-15 03:30N 47°34' W 122°21'0 0.0
2017-Sep-15 03:00N 47°34' W 122°21'0 0.0
2017-Sep-15 02:30N 47°34' W 122°21'0 0.0
2017-Sep-15 02:00N 47°34' W 122°21'1 3.0
2017-Sep-15 01:31N 47°35' W 122°22'2 4.5
2017-Sep-15 01:00N 47°33' W 122°21'0 0.3
2017-Sep-15 00:30N 47°33' W 122°20'1 2.6
2017-Sep-15 00:00N 47°34' W 122°21'1 2.4
2017-Sep-14 23:30N 47°35' W 122°22'2 3.1
2017-Sep-14 23:00N 47°34' W 122°21'0 0.0
2017-Sep-14 22:30N 47°34' W 122°21'0 0.0
2017-Sep-14 22:00N 47°34' W 122°21'0 0.0
2017-Sep-14 21:30N 47°34' W 122°21'0 0.0
2017-Sep-14 21:00N 47°34' W 122°21'0 0.0
2017-Sep-14 20:30N 47°34' W 122°21'0 0.0
2017-Sep-14 03:56N 47°34' W 122°21'1 3.3
2017-Sep-14 03:30N 47°35' W 122°22'2 4.7
2017-Sep-14 03:00N 47°33' W 122°21'1 2.3
2017-Sep-14 02:30N 47°32' W 122°20'0 0.0
2017-Sep-14 02:00N 47°32' W 122°20'1 1.2
2017-Sep-14 01:30N 47°33' W 122°20'0 0.6
2017-Sep-14 01:00N 47°33' W 122°20'3 5.2
2017-Sep-14 00:30N 47°35' W 122°22'2 4.6
2017-Sep-14 00:00N 47°33' W 122°21'2 3.6
2017-Sep-13 23:30N 47°35' W 122°22'1 1.5
2017-Sep-13 23:00N 47°34' W 122°21'1 1.8
2017-Sep-13 22:30N 47°33' W 122°21'0 0.1
2017-Sep-13 21:59N 47°33' W 122°21'0 1.0
2017-Sep-13 21:30N 47°33' W 122°20'2 3.8
2017-Sep-13 21:00N 47°35' W 122°22'1 1.5
2017-Sep-13 20:30N 47°35' W 122°21'0 0.7
2017-Sep-13 20:00N 47°35' W 122°22'1 2.6
2017-Sep-13 19:30N 47°34' W 122°21'1 1.5
2017-Sep-13 19:00N 47°33' W 122°21'0 0.1
2017-Sep-13 18:30N 47°33' W 122°21'2 4.7
2017-Sep-13 18:00N 47°36' W 122°22'1 2.4
2017-Sep-13 17:30N 47°34' W 122°21'2 3.4
2017-Sep-13 17:00N 47°33' W 122°20'0 0.2
2017-Sep-13 16:30N 47°33' W 122°20'0 0.4
2017-Sep-13 16:00N 47°33' W 122°20'0 0.1
2017-Sep-13 15:30N 47°33' W 122°20'1 1.0
2017-Sep-13 15:00N 47°33' W 122°21'2 4.1
2017-Sep-13 14:30N 47°35' W 122°22'1 0.2
2017-Sep-13 09:23N 47°34' W 122°21'1 2.1
2017-Sep-13 09:00N 47°33' W 122°21'1 2.4
2017-Sep-13 08:30N 47°34' W 122°21'0 0.7
2017-Sep-13 08:00N 47°35' W 122°22'1 1.7
2017-Sep-13 07:30N 47°34' W 122°21'0 0.0
2017-Sep-13 07:00N 47°34' W 122°21'0 0.0
2017-Sep-13 06:30N 47°34' W 122°21'0 0.0
2017-Sep-13 06:00N 47°34' W 122°21'0 0.0
2017-Sep-13 05:30N 47°34' W 122°21'0 0.0
2017-Sep-13 05:00N 47°34' W 122°21'1 1.3
2017-Sep-13 04:30N 47°35' W 122°22'0 0.3
2017-Sep-13 04:00N 47°34' W 122°21'1 1.9
2017-Sep-13 03:30N 47°35' W 122°21'1 1.7
2017-Sep-13 03:00N 47°34' W 122°21'0 0.1
2017-Sep-13 02:30N 47°34' W 122°21'0 0.0
2017-Sep-13 02:00N 47°34' W 122°21'1 2.3
2017-Sep-13 01:30N 47°35' W 122°21'2 4.6
2017-Sep-13 01:00N 47°33' W 122°21'1 1.9
2017-Sep-13 00:30N 47°34' W 122°21'0 0.0
2017-Sep-13 00:00N 47°34' W 122°21'0 0.0
2017-Sep-12 23:30N 47°34' W 122°21'0 0.0
2017-Sep-12 23:00N 47°34' W 122°21'0 0.0
2017-Sep-12 22:30N 47°34' W 122°21'0 0.0
2017-Sep-12 22:00N 47°34' W 122°21'0 0.5
2017-Sep-12 21:31N 47°34' W 122°21'0 0.5
2017-Sep-12 21:00N 47°34' W 122°21'0 0.0
2017-Sep-12 20:30N 47°34' W 122°21'1 1.7
2017-Sep-12 20:00N 47°33' W 122°21'1 1.7
2017-Sep-12 19:30N 47°34' W 122°21'0 0.0
2017-Sep-12 19:00N 47°34' W 122°21'0 0.0
2017-Sep-12 18:30N 47°34' W 122°21'0 0.0
2017-Sep-12 18:00N 47°34' W 122°21'0 0.6
2017-Sep-12 17:30N 47°34' W 122°21'1 2.0
2017-Sep-12 17:00N 47°35' W 122°21'0 0.6
2017-Sep-12 16:30N 47°36' W 122°21'0 0.7
2017-Sep-12 16:00N 47°35' W 122°21'1 2.6
2017-Sep-12 15:30N 47°34' W 122°21'0 0.0
2017-Sep-12 15:00N 47°34' W 122°21'0 0.0
2017-Sep-12 14:30N 47°34' W 122°21'0 0.0
2017-Sep-12 14:00N 47°34' W 122°21'0 0.0
2017-Sep-12 13:30N 47°34' W 122°21'0 0.0
2017-Sep-12 13:00N 47°34' W 122°21'0 0.0
2017-Sep-12 12:30N 47°34' W 122°21'0 0.0
2017-Sep-12 12:00N 47°34' W 122°21'0 0.0
2017-Sep-12 11:30N 47°34' W 122°21'0 0.0
2017-Sep-12 11:00N 47°34' W 122°21'0 0.0
2017-Sep-12 10:30N 47°34' W 122°21'0 0.0
2017-Sep-12 10:00N 47°34' W 122°21'0 0.0
2017-Sep-12 09:30N 47°34' W 122°21'0 0.0
2017-Sep-12 09:00N 47°34' W 122°21'0 0.0
2017-Sep-12 08:30N 47°34' W 122°21'0 0.0
2017-Sep-12 08:00N 47°34' W 122°21'0 0.0
2017-Sep-12 07:30N 47°34' W 122°21'1 2.3
2017-Sep-12 07:00N 47°35' W 122°21'0 0.2
2017-Sep-12 06:30N 47°35' W 122°21'1 2.6
2017-Sep-12 06:00N 47°34' W 122°21'0 0.2
2017-Sep-12 05:30N 47°34' W 122°21'0 0.0
2017-Sep-12 05:00N 47°34' W 122°21'0 0.0
2017-Sep-12 04:30N 47°34' W 122°21'0 0.0
2017-Sep-12 04:00N 47°34' W 122°21'0 0.0
2017-Sep-12 03:30N 47°34' W 122°21'0 0.0
2017-Sep-12 03:00N 47°34' W 122°21'0 0.0
2017-Sep-12 02:30N 47°34' W 122°21'0 0.0
2017-Sep-12 02:00N 47°34' W 122°21'0 0.0
2017-Sep-12 01:30N 47°34' W 122°21'0 0.0
2017-Sep-12 01:00N 47°34' W 122°21'0 0.0
2017-Sep-12 00:30N 47°34' W 122°21'0 0.0
2017-Sep-12 00:00N 47°34' W 122°21'0 0.0
2017-Sep-11 23:30N 47°34' W 122°21'1 1.8
2017-Sep-11 23:00N 47°33' W 122°21'0 0.0
2017-Sep-11 22:30N 47°33' W 122°21'0 0.0
2017-Sep-11 22:00N 47°33' W 122°21'0 0.2
2017-Sep-11 21:30N 47°33' W 122°21'2 4.4
2017-Sep-11 21:00N 47°35' W 122°22'0 0.1
2017-Sep-11 20:30N 47°35' W 122°22'1 1.2
2017-Sep-11 20:00N 47°35' W 122°22'3 5.7
2017-Sep-11 19:30N 47°32' W 122°20'3 5.3
2017-Sep-11 19:00N 47°35' W 122°22'3 7.0
2017-Sep-11 18:30N 47°37' W 122°24'3 6.5
2017-Sep-11 18:01N 47°41' W 122°25'2 4.5
2017-Sep-11 17:30N 47°38' W 122°26'5 9.5
2017-Sep-11 17:00N 47°35' W 122°22'1 3.0
2017-Sep-11 16:30N 47°33' W 122°21'1 2.3
2017-Sep-11 16:01N 47°34' W 122°21'  

Dump ship's entire track history